Time;durP1;ratioP1;P1;durP2;ratioP2;P2;SDS_P1;SDS_P2;PMS_P1;PMS_P2;Temp;Humidity;BMP_temperature;BMP_pressure;BME280_temperature;BME280_humidity;BME280_pressure;Samples;Min_cycle;Max_cycle;Signal;HPM_P1;HPM_P2
2022/03/08 00:02:18;;;;;;;7.07;4.63;;;4.80;79.10;;;;;;5018331;28;20486;-39
2022/03/08 00:04:43;;;;;;;7.80;5.30;;;5.20;80.00;;;;;;5027239;28;20384;-39
2022/03/08 00:07:09;;;;;;;8.50;5.30;;;5.00;80.30;;;;;;5028042;28;21206;-39
2022/03/08 00:09:35;;;;;;;5.93;5.10;;;4.80;79.90;;;;;;5027428;28;20202;-39
2022/03/08 00:12:02;;;;;;;5.43;4.90;;;5.00;80.50;;;;;;5027497;28;20433;-39
2022/03/08 00:14:29;;;;;;;5.23;4.53;;;4.80;81.10;;;;;;5027800;28;20464;-39
2022/03/08 00:16:55;;;;;;;5.80;4.87;;;4.70;81.20;;;;;;5012537;28;20425;-39
2022/03/08 00:19:21;;;;;;;5.33;4.83;;;4.80;81.90;;;;;;5027574;28;20417;-39
2022/03/08 00:21:47;;;;;;;5.40;4.67;;;4.70;81.60;;;;;;5027068;28;20478;-39
2022/03/08 00:24:12;;;;;;;6.70;5.07;;;4.60;81.70;;;;;;5038639;28;20281;-39
2022/03/08 00:26:38;;;;;;;5.23;4.73;;;4.60;81.40;;;;;;5040504;28;20186;-39
2022/03/08 00:29:04;;;;;;;4.60;4.20;;;4.60;81.60;;;;;;5047401;28;20680;-39
2022/03/08 00:31:30;;;;;;;6.90;5.13;;;4.60;81.60;;;;;;5015694;28;20552;-39
2022/03/08 00:33:56;;;;;;;5.80;4.50;;;4.50;81.80;;;;;;5027578;28;20684;-39
2022/03/08 00:36:21;;;;;;;5.90;4.77;;;4.60;82.00;;;;;;5027286;28;20425;-39
2022/03/08 00:38:47;;;;;;;5.97;4.93;;;4.80;82.30;;;;;;5027366;28;20182;-39
2022/03/08 00:41:13;;;;;;;6.17;5.20;;;4.90;82.60;;;;;;5026273;28;20194;-39
2022/03/08 00:43:39;;;;;;;5.63;4.63;;;4.50;82.20;;;;;;5026286;28;20216;-39
2022/03/08 00:46:05;;;;;;;5.30;4.80;;;4.60;82.80;;;;;;5027582;28;20191;-39
2022/03/08 00:48:30;;;;;;;6.57;5.60;;;4.60;83.00;;;;;;5025072;28;20193;-39
2022/03/08 00:50:56;;;;;;;6.83;5.70;;;4.60;83.50;;;;;;5026456;28;20425;-39
2022/03/08 00:53:22;;;;;;;6.27;5.30;;;4.50;84.30;;;;;;5027699;28;20218;-39
2022/03/08 00:55:47;;;;;;;7.80;4.67;;;4.30;83.60;;;;;;5027208;28;20193;-39
2022/03/08 00:58:13;;;;;;;5.60;5.00;;;4.50;84.10;;;;;;5027553;28;20672;-39
2022/03/08 01:00:41;;;;;;;6.20;4.60;;;4.50;84.20;;;;;;5023807;28;20190;-39
2022/03/08 01:03:07;;;;;;;7.20;5.30;;;4.20;85.80;;;;;;5021302;28;20273;-39
2022/03/08 01:05:34;;;;;;;6.40;5.50;;;4.50;86.20;;;;;;5027040;28;20452;-39
2022/03/08 01:08:00;;;;;;;6.37;5.73;;;4.20;86.50;;;;;;5025775;28;20417;-39
2022/03/08 01:10:27;;;;;;;7.57;5.17;;;4.30;87.70;;;;;;5027603;28;20524;-39
2022/03/08 01:12:54;;;;;;;6.40;5.77;;;4.10;88.10;;;;;;5046935;28;20459;-39
2022/03/08 01:15:24;;;;;;;5.67;5.07;;;3.90;88.40;;;;;;5045715;28;20480;-40
2022/03/08 01:17:50;;;;;;;6.90;5.43;;;4.00;90.10;;;;;;5000542;28;20939;-39
2022/03/08 01:20:16;;;;;;;7.40;4.73;;;3.90;90.40;;;;;;5026215;28;20413;-39
2022/03/08 01:22:42;;;;;;;6.93;5.43;;;3.80;90.60;;;;;;5036249;28;20404;-39
2022/03/08 01:25:11;;;;;;;7.17;5.03;;;4.00;90.60;;;;;;5037852;28;20432;-39
2022/03/08 01:27:37;;;;;;;5.87;5.27;;;3.90;90.60;;;;;;5046511;28;20424;-39
2022/03/08 01:30:09;;;;;;;6.93;5.47;;;4.00;90.70;;;;;;5044702;28;20420;-39
2022/03/08 01:32:35;;;;;;;6.10;5.50;;;3.70;90.80;;;;;;5014020;28;20430;-39
2022/03/08 01:35:01;;;;;;;7.93;5.70;;;3.60;91.80;;;;;;5023899;28;20516;-39
2022/03/08 01:37:26;;;;;;;5.73;5.13;;;3.30;92.80;;;;;;5025010;28;20194;-39
2022/03/08 01:39:52;;;;;;;8.27;5.93;;;3.10;93.60;;;;;;5025878;28;20194;-39
2022/03/08 01:42:21;;;;;;;7.30;5.87;;;2.80;94.00;;;;;;5026367;28;20323;-39
2022/03/08 01:44:47;;;;;;;6.23;5.60;;;2.70;94.70;;;;;;5026626;28;20198;-39
2022/03/08 01:47:18;;;;;;;7.93;5.80;;;2.90;95.20;;;;;;5013984;28;20524;-39
2022/03/08 01:49:47;;;;;;;5.53;4.93;;;2.80;95.60;;;;;;5036772;28;20840;-39
2022/03/08 01:52:14;;;;;;;6.90;5.80;;;2.70;95.70;;;;;;5026398;28;20460;-39
2022/03/08 01:54:42;;;;;;;12.03;5.60;;;2.90;96.30;;;;;;5028099;28;20792;-39
2022/03/08 01:57:08;;;;;;;6.63;5.57;;;2.70;96.30;;;;;;5030173;28;20952;-39
2022/03/08 01:59:35;;;;;;;6.63;5.93;;;2.80;96.50;;;;;;5029493;28;20452;-39
2022/03/08 02:02:01;;;;;;;5.93;5.33;;;2.90;96.20;;;;;;5020218;28;20437;-39
2022/03/08 02:04:27;;;;;;;5.80;5.20;;;2.70;96.70;;;;;;5007345;28;20953;-39
2022/03/08 02:06:53;;;;;;;7.03;6.10;;;2.70;96.80;;;;;;5029800;28;20453;-39
2022/03/08 02:09:19;;;;;;;6.70;5.70;;;2.80;96.70;;;;;;5029821;28;20205;-39
2022/03/08 02:11:45;;;;;;;10.03;6.23;;;2.90;97.20;;;;;;5028060;28;20190;-39
2022/03/08 02:14:10;;;;;;;7.20;5.47;;;2.80;97.20;;;;;;5029413;28;20260;-39
2022/03/08 02:16:36;;;;;;;8.00;5.87;;;2.90;97.90;;;;;;5022942;28;20437;-39
2022/03/08 02:19:02;;;;;;;8.43;6.00;;;2.90;97.30;;;;;;5028392;28;20237;-39
2022/03/08 02:21:33;;;;;;;7.50;6.20;;;2.50;96.90;;;;;;5028845;28;20425;-39
2022/03/08 02:23:59;;;;;;;7.40;6.23;;;2.50;97.20;;;;;;5047325;28;20427;-39
2022/03/08 02:26:26;;;;;;;7.27;5.50;;;2.70;97.90;;;;;;5041994;28;20912;-39
2022/03/08 02:28:52;;;;;;;6.43;5.63;;;2.30;98.00;;;;;;5048192;28;20193;-39
2022/03/08 02:31:18;;;;;;;7.20;5.90;;;2.40;98.20;;;;;;5043042;28;20448;-39
2022/03/08 02:33:44;;;;;;;6.17;5.40;;;2.50;98.30;;;;;;5023860;28;21028;-39
2022/03/08 02:36:10;;;;;;;6.27;5.67;;;2.10;98.10;;;;;;5029326;28;20190;-39
2022/03/08 02:38:36;;;;;;;8.30;6.30;;;2.20;98.20;;;;;;5029633;28;20498;-39
2022/03/08 02:41:02;;;;;;;6.63;5.70;;;2.40;98.40;;;;;;5028500;28;20417;-39
2022/03/08 02:43:28;;;;;;;7.73;6.40;;;2.50;98.70;;;;;;5029603;28;20255;-39
2022/03/08 02:45:53;;;;;;;8.07;6.97;;;2.20;98.90;;;;;;5028446;28;20437;-39
2022/03/08 02:48:19;;;;;;;9.27;7.63;;;2.20;98.30;;;;;;5016642;28;20293;-39
2022/03/08 02:50:45;;;;;;;8.37;6.90;;;2.60;98.40;;;;;;5028288;28;20225;-39
2022/03/08 02:53:10;;;;;;;8.10;6.70;;;2.60;97.80;;;;;;5029010;28;20229;-39
2022/03/08 02:55:37;;;;;;;8.00;7.20;;;2.90;97.00;;;;;;5028868;28;20285;-39
2022/03/08 02:58:04;;;;;;;9.83;7.40;;;2.80;96.80;;;;;;5027654;28;20352;-39
2022/03/08 03:00:31;;;;;;;11.13;8.30;;;2.90;96.60;;;;;;5028562;28;21050;-39
2022/03/08 03:02:57;;;;;;;8.40;6.43;;;2.60;96.30;;;;;;5017358;28;20433;-39
2022/03/08 03:05:24;;;;;;;8.50;7.43;;;2.90;96.20;;;;;;5028384;28;20822;-39
2022/03/08 03:07:49;;;;;;;8.30;6.77;;;3.10;95.50;;;;;;5028670;28;20465;-39
2022/03/08 03:10:19;;;;;;;6.70;5.97;;;3.30;95.00;;;;;;5026888;28;20536;-39
2022/03/08 03:12:45;;;;;;;8.17;6.67;;;3.40;94.60;;;;;;5028384;28;20429;-39
2022/03/08 03:15:14;;;;;;;8.27;6.97;;;3.30;94.10;;;;;;5026991;28;20460;-39
2022/03/08 03:17:40;;;;;;;7.57;6.23;;;3.50;93.60;;;;;;5021503;28;20468;-39
2022/03/08 03:20:08;;;;;;;11.50;6.60;;;3.50;93.70;;;;;;5026255;28;20441;-39
2022/03/08 03:22:34;;;;;;;7.40;6.40;;;3.50;93.70;;;;;;5036317;28;20795;-39
2022/03/08 03:25:00;;;;;;;7.13;6.43;;;3.60;93.60;;;;;;5045516;28;20447;-39
2022/03/08 03:27:26;;;;;;;8.70;6.00;;;3.40;93.60;;;;;;5048038;28;20432;-39
2022/03/08 03:29:51;;;;;;;7.87;7.07;;;3.60;93.90;;;;;;5047184;28;20424;-39
2022/03/08 03:32:19;;;;;;;7.73;6.73;;;3.30;93.90;;;;;;5031915;28;20642;-39
2022/03/08 03:34:48;;;;;;;10.43;7.03;;;3.40;94.10;;;;;;5009230;28;20207;-39
2022/03/08 03:37:13;;;;;;;7.90;6.27;;;3.40;93.90;;;;;;5028351;28;20771;-39
2022/03/08 03:39:39;;;;;;;8.90;6.70;;;3.30;93.90;;;;;;5026340;28;20479;-39
2022/03/08 03:42:05;;;;;;;8.03;6.80;;;3.30;93.70;;;;;;5028487;28;20236;-39
2022/03/08 03:44:30;;;;;;;7.27;6.57;;;3.60;93.80;;;;;;5027552;28;20257;-39
2022/03/08 03:46:56;;;;;;;7.27;6.57;;;3.50;93.70;;;;;;5023375;28;20817;-39
2022/03/08 03:49:22;;;;;;;7.60;6.70;;;3.60;93.60;;;;;;5022333;28;20434;-40
2022/03/08 03:51:50;;;;;;;8.10;6.53;;;3.50;93.70;;;;;;5027412;28;20194;-39
2022/03/08 03:54:18;;;;;;;7.10;6.40;;;3.60;93.60;;;;;;5027691;28;20580;-39
2022/03/08 03:56:44;;;;;;;6.77;5.97;;;3.40;94.30;;;;;;5027588;28;20528;-39
2022/03/08 03:59:10;;;;;;;8.33;6.50;;;3.30;94.90;;;;;;5026011;28;20436;-39
2022/03/08 04:01:35;;;;;;;11.03;8.00;;;3.30;95.30;;;;;;5025418;28;20421;-39
2022/03/08 04:04:01;;;;;;;8.50;6.63;;;2.90;95.30;;;;;;5022950;28;20190;-39
2022/03/08 04:06:27;;;;;;;7.60;6.80;;;2.70;96.20;;;;;;5027474;28;20289;-40
2022/03/08 04:08:52;;;;;;;7.90;7.00;;;2.70;97.20;;;;;;5026184;28;20190;-39
2022/03/08 04:11:18;;;;;;;7.27;6.47;;;2.20;97.60;;;;;;5026870;28;20191;-39
2022/03/08 04:13:43;;;;;;;7.87;6.10;;;2.10;98.10;;;;;;5042399;28;20222;-39
2022/03/08 04:16:10;;;;;;;8.50;7.20;;;2.10;98.70;;;;;;5027090;28;20529;-39
2022/03/08 04:18:35;;;;;;;9.67;6.50;;;2.20;99.10;;;;;;5012708;28;20596;-39
2022/03/08 04:21:01;;;;;;;7.47;6.70;;;2.00;99.10;;;;;;5026168;28;20421;-39
2022/03/08 04:23:27;;;;;;;7.30;6.63;;;2.30;99.10;;;;;;5027249;28;20421;-39
2022/03/08 04:25:53;;;;;;;7.73;6.63;;;2.20;98.80;;;;;;5024545;28;20201;-39
2022/03/08 04:28:19;;;;;;;9.30;6.83;;;2.20;98.70;;;;;;5027275;28;20248;-39
2022/03/08 04:30:44;;;;;;;8.10;6.33;;;2.10;99.00;;;;;;5026582;28;20433;-39
2022/03/08 04:33:10;;;;;;;9.00;6.77;;;2.20;99.20;;;;;;5018455;28;20211;-39
2022/03/08 04:35:36;;;;;;;7.83;7.03;;;2.10;99.10;;;;;;5026772;28;20186;-39
2022/03/08 04:38:01;;;;;;;9.00;6.23;;;2.00;99.20;;;;;;5025706;28;20599;-39
2022/03/08 04:40:27;;;;;;;7.10;6.40;;;2.00;99.40;;;;;;5026403;28;20337;-39
2022/03/08 04:42:53;;;;;;;8.90;7.00;;;1.90;99.40;;;;;;5026693;28;20194;-39
2022/03/08 04:45:19;;;;;;;8.67;6.37;;;2.00;99.70;;;;;;5027250;28;20439;-39
2022/03/08 04:47:44;;;;;;;7.60;6.90;;;2.00;99.70;;;;;;5021219;28;20190;-39
2022/03/08 04:50:14;;;;;;;8.80;7.13;;;1.90;99.90;;;;;;5020987;28;20398;-39
2022/03/08 04:52:40;;;;;;;8.80;7.60;;;1.70;99.90;;;;;;5025245;28;20178;-39
2022/03/08 04:55:06;;;;;;;8.23;6.57;;;1.70;99.90;;;;;;5026863;28;20475;-39
2022/03/08 04:57:32;;;;;;;8.73;7.03;;;1.60;99.90;;;;;;5026336;28;20460;-39
2022/03/08 04:59:58;;;;;;;9.70;8.20;;;1.70;99.90;;;;;;5026538;28;20429;-39
2022/03/08 05:02:24;;;;;;;8.23;6.33;;;1.60;99.90;;;;;;5023204;28;21002;-39
2022/03/08 05:04:50;;;;;;;11.50;7.97;;;1.60;99.90;;;;;;5021983;28;20210;-40
2022/03/08 05:07:16;;;;;;;13.63;7.90;;;1.70;99.90;;;;;;5026484;28;20456;-39
2022/03/08 05:09:41;;;;;;;9.50;7.47;;;1.70;99.90;;;;;;5026318;28;20251;-39
2022/03/08 05:12:08;;;;;;;10.50;7.67;;;1.50;99.90;;;;;;5026602;28;20228;-39
2022/03/08 05:14:37;;;;;;;9.77;7.90;;;1.60;99.90;;;;;;5026711;28;20214;-39
2022/03/08 05:17:03;;;;;;;9.40;7.37;;;1.70;99.90;;;;;;5024957;28;20491;-39
2022/03/08 05:19:29;;;;;;;8.93;7.27;;;1.60;99.90;;;;;;5016552;28;20444;-39
2022/03/08 05:21:54;;;;;;;9.37;6.70;;;1.90;99.90;;;;;;5026246;28;20939;-39
2022/03/08 05:24:20;;;;;;;8.33;7.53;;;1.60;99.90;;;;;;5025040;28;20575;-39
2022/03/08 05:26:46;;;;;;;8.37;7.37;;;1.70;99.90;;;;;;5026467;28;20653;-39
2022/03/08 05:29:11;;;;;;;10.93;7.20;;;1.80;99.90;;;;;;5029624;28;20202;-39
2022/03/08 05:31:37;;;;;;;8.13;7.20;;;1.80;99.90;;;;;;5029959;28;20186;-39
2022/03/08 05:34:03;;;;;;;11.40;8.83;;;1.70;99.90;;;;;;5021810;28;20238;-39
2022/03/08 05:36:29;;;;;;;10.77;8.30;;;1.90;99.90;;;;;;5028811;28;20425;-39
2022/03/08 05:38:54;;;;;;;10.33;8.47;;;1.70;99.90;;;;;;5029171;28;20194;-39
2022/03/08 05:41:20;;;;;;;12.30;9.00;;;1.70;99.90;;;;;;5029657;28;20240;-39
2022/03/08 05:43:46;;;;;;;10.37;7.97;;;1.60;99.90;;;;;;5028911;28;20186;-39
2022/03/08 05:46:12;;;;;;;9.10;7.00;;;1.80;99.90;;;;;;5030241;28;20200;-39
2022/03/08 05:48:38;;;;;;;8.00;6.80;;;1.60;99.90;;;;;;5020821;28;20748;-39
2022/03/08 05:51:04;;;;;;;14.37;7.73;;;1.60;99.90;;;;;;5029389;28;20555;-39
2022/03/08 05:53:30;;;;;;;10.30;7.47;;;1.70;99.90;;;;;;5030321;28;20537;-39
2022/03/08 05:55:56;;;;;;;10.70;7.20;;;1.70;99.90;;;;;;5029974;28;20445;-39
2022/03/08 05:58:22;;;;;;;10.90;8.00;;;1.80;99.90;;;;;;5022147;28;20939;-40
2022/03/08 06:00:48;;;;;;;12.90;8.83;;;1.60;99.90;;;;;;5025017;28;20421;-39
2022/03/08 06:03:14;;;;;;;11.13;9.20;;;1.40;99.90;;;;;;5024803;28;20437;-39
2022/03/08 06:05:39;;;;;;;10.80;8.37;;;1.60;99.90;;;;;;5026693;28;20194;-39
2022/03/08 06:08:05;;;;;;;10.47;8.37;;;1.50;99.90;;;;;;5029752;28;20276;-39
2022/03/08 06:10:32;;;;;;;10.57;8.70;;;1.40;99.90;;;;;;5028713;28;20204;-38
2022/03/08 06:12:58;;;;;;;8.77;7.40;;;1.60;99.90;;;;;;5029930;28;20205;-38
2022/03/08 06:15:24;;;;;;;14.70;7.50;;;1.70;99.90;;;;;;5029517;28;20557;-39
2022/03/08 06:17:50;;;;;;;10.27;7.93;;;1.90;99.90;;;;;;5025556;28;20213;-39
2022/03/08 06:20:16;;;;;;;10.00;7.83;;;1.80;99.90;;;;;;5029165;28;20937;-39
2022/03/08 06:22:42;;;;;;;8.33;7.53;;;2.00;99.90;;;;;;5029571;28;20421;-39
2022/03/08 06:25:08;;;;;;;8.07;7.27;;;2.10;99.90;;;;;;5028177;28;20297;-39
2022/03/08 06:27:34;;;;;;;10.00;8.17;;;2.10;99.90;;;;;;5028084;28;20198;-39
2022/03/08 06:30:00;;;;;;;8.40;6.90;;;2.20;99.90;;;;;;5028791;28;20892;-39
2022/03/08 06:32:26;;;;;;;11.37;8.00;;;2.20;99.90;;;;;;5029167;28;20491;-39
2022/03/08 06:34:51;;;;;;;8.37;7.27;;;2.20;99.90;;;;;;5015002;28;20559;-39
2022/03/08 06:37:18;;;;;;;9.23;7.13;;;2.40;99.90;;;;;;5027625;28;20183;-39
2022/03/08 06:39:45;;;;;;;8.50;6.60;;;2.20;99.90;;;;;;5024963;28;20660;-39
2022/03/08 06:42:11;;;;;;;13.10;7.40;;;2.60;99.90;;;;;;5024628;28;20424;-39
2022/03/08 06:44:39;;;;;;;9.63;7.60;;;2.60;99.80;;;;;;5031778;28;20429;-39
2022/03/08 06:47:06;;;;;;;10.17;7.50;;;2.70;99.90;;;;;;5048957;28;20435;-39
2022/03/08 06:49:33;;;;;;;9.50;7.97;;;2.80;99.60;;;;;;5021807;28;20441;-39
2022/03/08 06:51:59;;;;;;;8.80;7.63;;;2.90;99.30;;;;;;5020371;28;20989;-39
2022/03/08 06:54:24;;;;;;;9.27;7.47;;;2.70;99.00;;;;;;5029012;28;20465;-40
2022/03/08 06:56:50;;;;;;;8.87;7.50;;;2.90;98.60;;;;;;5028711;28;20232;-39
2022/03/08 06:59:16;;;;;;;14.50;8.07;;;3.00;98.20;;;;;;5028720;28;20194;-39
2022/03/08 07:01:42;;;;;;;13.20;8.00;;;3.10;98.20;;;;;;5025329;28;20198;-39
2022/03/08 07:04:07;;;;;;;10.57;7.80;;;3.20;98.20;;;;;;5017159;28;20817;-39
2022/03/08 07:06:33;;;;;;;10.03;7.47;;;3.40;97.90;;;;;;5024302;28;20190;-39
2022/03/08 07:08:59;;;;;;;9.50;7.83;;;3.40;97.40;;;;;;5028238;28;20205;-39
2022/03/08 07:11:25;;;;;;;9.33;7.60;;;3.50;97.30;;;;;;5028910;28;20198;-39
2022/03/08 07:13:50;;;;;;;9.43;7.13;;;3.40;97.10;;;;;;5027597;28;20613;-39
2022/03/08 07:16:16;;;;;;;9.10;8.20;;;3.60;97.60;;;;;;5026878;28;20225;-39
2022/03/08 07:18:42;;;;;;;7.90;6.90;;;3.60;97.30;;;;;;5024090;28;20329;-39
2022/03/08 07:21:08;;;;;;;9.43;6.90;;;3.70;97.00;;;;;;5025437;28;20703;-39
2022/03/08 07:23:33;;;;;;;8.53;7.53;;;3.80;96.70;;;;;;5030447;28;20186;-39
2022/03/08 07:25:59;;;;;;;10.87;7.20;;;3.80;96.40;;;;;;5048512;28;20703;-39
2022/03/08 07:28:25;;;;;;;9.40;7.27;;;3.90;96.10;;;;;;5045503;28;20197;-39
2022/03/08 07:30:51;;;;;;;9.53;7.57;;;4.10;95.90;;;;;;5047678;28;20197;-39
2022/03/08 07:33:17;;;;;;;8.20;6.97;;;4.10;95.60;;;;;;5022697;28;20703;-39
2022/03/08 07:35:42;;;;;;;8.40;7.20;;;4.50;95.10;;;;;;5019571;28;20201;-39
2022/03/08 07:38:08;;;;;;;8.87;7.40;;;4.80;94.50;;;;;;5028152;28;20413;-39
2022/03/08 07:40:34;;;;;;;11.53;7.47;;;5.00;94.40;;;;;;5025991;28;20544;-39
2022/03/08 07:43:01;;;;;;;8.77;6.50;;;5.00;93.60;;;;;;5026830;28;20198;-39
2022/03/08 07:45:27;;;;;;;7.50;6.63;;;5.50;93.00;;;;;;5028262;28;20468;-39
2022/03/08 07:47:53;;;;;;;6.87;6.07;;;5.60;91.80;;;;;;5027772;28;20456;-39
2022/03/08 07:50:19;;;;;;;7.80;6.27;;;5.80;91.50;;;;;;5022253;28;20489;-39
2022/03/08 07:52:45;;;;;;;8.20;6.53;;;5.80;90.30;;;;;;5028504;28;20557;-39
2022/03/08 07:55:10;;;;;;;9.40;7.27;;;6.10;90.30;;;;;;5027376;28;20480;-39
2022/03/08 07:57:36;;;;;;;8.50;7.13;;;6.40;90.10;;;;;;5010082;28;20603;-39
2022/03/08 08:00:05;;;;;;;12.43;7.20;;;6.40;89.80;;;;;;5037750;28;20314;-40
2022/03/08 08:02:30;;;;;;;7.33;6.63;;;6.90;87.90;;;;;;5044768;28;20196;-39
2022/03/08 08:04:56;;;;;;;7.33;6.63;;;6.90;87.00;;;;;;5017875;28;20437;-40
2022/03/08 08:07:22;;;;;;;8.10;6.63;;;7.20;86.50;;;;;;5027531;28;20700;-39
2022/03/08 08:09:47;;;;;;;9.40;6.90;;;7.10;86.40;;;;;;5027154;28;20202;-39
2022/03/08 08:12:13;;;;;;;8.17;6.30;;;7.40;84.90;;;;;;5027416;28;20201;-39
2022/03/08 08:14:39;;;;;;;8.97;6.87;;;7.20;83.60;;;;;;5027607;28;20218;-39
2022/03/08 08:17:05;;;;;;;9.60;6.97;;;7.50;84.00;;;;;;5027118;28;20201;-39
2022/03/08 08:19:31;;;;;;;7.87;7.07;;;7.50;82.90;;;;;;5020691;28;20434;-39
2022/03/08 08:21:57;;;;;;;12.33;7.37;;;7.60;83.40;;;;;;5026563;28;20436;-39
2022/03/08 08:24:23;;;;;;;10.63;8.17;;;7.50;82.50;;;;;;5026076;28;20783;-39
2022/03/08 08:26:49;;;;;;;13.50;7.90;;;7.50;81.60;;;;;;5029774;28;20685;-39
2022/03/08 08:29:14;;;;;;;9.00;7.07;;;7.60;81.90;;;;;;5027863;28;20221;-39
2022/03/08 08:31:40;;;;;;;8.40;7.50;;;7.60;81.40;;;;;;5024990;28;20904;-40
2022/03/08 08:34:06;;;;;;;7.73;6.40;;;7.80;81.30;;;;;;5019596;28;20312;-40
2022/03/08 08:36:32;;;;;;;9.03;6.57;;;8.00;80.60;;;;;;5024178;28;20182;-39
2022/03/08 08:38:58;;;;;;;8.70;6.50;;;8.10;80.60;;;;;;5027538;28;20609;-39
2022/03/08 08:41:23;;;;;;;8.50;6.60;;;8.20;80.20;;;;;;5026338;28;20520;-39
2022/03/08 08:43:49;;;;;;;8.37;7.40;;;8.40;80.40;;;;;;5026324;28;20789;-39
2022/03/08 08:46:15;;;;;;;7.53;6.83;;;8.50;78.50;;;;;;5027379;28;20583;-39
2022/03/08 08:48:40;;;;;;;7.93;6.73;;;8.30;78.40;;;;;;5024845;28;20240;-40
2022/03/08 08:51:06;;;;;;;8.23;7.00;;;8.60;77.50;;;;;;5023071;28;20181;-39
2022/03/08 08:53:31;;;;;;;9.43;6.80;;;8.70;78.10;;;;;;5025646;28;20544;-40
2022/03/08 08:55:57;;;;;;;7.63;6.00;;;8.80;75.70;;;;;;5027114;28;20692;-39
2022/03/08 08:58:23;;;;;;;7.07;6.20;;;8.80;76.00;;;;;;5035824;28;20708;-39
2022/03/08 09:00:49;;;;;;;8.27;6.77;;;8.70;74.70;;;;;;5046080;28;20202;-40
2022/03/08 09:03:16;;;;;;;7.13;6.43;;;8.50;75.50;;;;;;5045802;28;20710;-39
2022/03/08 09:05:45;;;;;;;6.87;6.17;;;9.00;75.70;;;;;;4997011;28;20508;-39
2022/03/08 09:08:12;;;;;;;7.80;6.10;;;9.10;76.20;;;;;;5026830;28;20908;-39
2022/03/08 09:10:38;;;;;;;7.07;5.73;;;9.00;74.60;;;;;;5025864;28;20902;-40
2022/03/08 09:13:05;;;;;;;8.50;6.63;;;9.30;74.50;;;;;;5026869;28;20445;-39
2022/03/08 09:15:31;;;;;;;7.63;6.30;;;9.30;72.90;;;;;;5026513;28;20193;-39
2022/03/08 09:17:57;;;;;;;7.43;6.30;;;9.40;72.00;;;;;;5026494;28;20428;-39
2022/03/08 09:20:25;;;;;;;8.43;5.30;;;9.70;71.80;;;;;;5015683;28;20924;-39
2022/03/08 09:22:55;;;;;;;8.43;5.87;;;9.30;68.60;;;;;;5026532;28;20740;-40
2022/03/08 09:25:22;;;;;;;7.03;6.17;;;9.50;68.90;;;;;;5039031;28;20481;-40
2022/03/08 09:27:48;;;;;;;6.90;6.20;;;9.40;68.50;;;;;;5041378;28;20420;-39
2022/03/08 09:30:14;;;;;;;8.20;5.37;;;9.70;68.70;;;;;;5044055;28;20432;-39
2022/03/08 09:32:40;;;;;;;6.27;5.60;;;9.60;67.20;;;;;;5022986;28;20477;-39
2022/03/08 09:35:06;;;;;;;6.23;5.63;;;9.70;66.20;;;;;;5014773;28;20540;-39
2022/03/08 09:37:31;;;;;;;5.70;5.20;;;9.90;65.50;;;;;;5024021;28;20560;-39
2022/03/08 09:39:57;;;;;;;6.10;5.50;;;10.10;62.90;;;;;;5026078;28;20504;-39
2022/03/08 09:42:23;;;;;;;6.13;4.63;;;10.30;63.10;;;;;;5026774;28;20217;-39
2022/03/08 09:44:49;;;;;;;7.50;6.30;;;10.10;60.60;;;;;;5026635;28;20725;-39
2022/03/08 09:47:16;;;;;;;5.50;5.00;;;9.90;60.20;;;;;;5026754;28;20429;-39
2022/03/08 09:49:42;;;;;;;6.20;5.60;;;9.90;60.50;;;;;;5023056;28;20242;-39
2022/03/08 09:52:08;;;;;;;5.77;4.83;;;9.90;61.20;;;;;;5022312;28;20432;-40
2022/03/08 09:54:34;;;;;;;6.80;5.10;;;10.10;59.30;;;;;;5026617;28;20513;-40
2022/03/08 09:57:07;;;;;;;5.83;5.10;;;10.10;58.30;;;;;;5026561;28;20472;-39
2022/03/08 09:59:33;;;;;;;6.27;4.90;;;10.00;60.00;;;;;;5026189;28;20190;-39
2022/03/08 10:01:59;;;;;;;5.50;4.90;;;10.50;59.90;;;;;;5026301;28;20421;-40
2022/03/08 10:04:24;;;;;;;6.10;5.50;;;10.70;58.20;;;;;;5022103;28;20183;-40
2022/03/08 10:06:51;;;;;;;5.93;5.33;;;10.60;56.90;;;;;;5022859;28;20202;-42
2022/03/08 10:09:20;;;;;;;6.00;5.00;;;10.60;57.50;;;;;;5024079;28;20186;-42
2022/03/08 10:11:50;;;;;;;6.47;5.37;;;10.50;56.60;;;;;;5024082;28;20434;-40
2022/03/08 10:14:35;;;;;;;5.50;5.00;;;10.80;57.70;;;;;;5026439;28;20622;-40
2022/03/08 10:17:01;;;;;;;6.40;5.40;;;11.10;57.40;;;;;;5030082;28;20417;-39
2022/03/08 10:19:27;;;;;;;5.80;5.30;;;11.00;57.00;;;;;;5025668;28;20441;-40
2022/03/08 10:21:54;;;;;;;5.33;4.83;;;10.90;55.70;;;;;;5024247;28;20186;-40
2022/03/08 10:24:23;;;;;;;6.27;5.63;;;11.00;56.20;;;;;;5028436;28;20721;-39
2022/03/08 10:26:50;;;;;;;6.73;5.50;;;10.90;55.80;;;;;;5028756;28;20975;-39
2022/03/08 10:29:30;;;;;;;7.77;5.60;;;11.20;56.40;;;;;;5030053;28;20416;-39
2022/03/08 10:32:16;;;;;;;5.73;5.00;;;11.20;55.50;;;;;;5023968;28;20885;-39
2022/03/08 10:34:43;;;;;;;5.50;5.00;;;11.20;55.60;;;;;;5021381;28;20461;-39
2022/03/08 10:37:15;;;;;;;6.60;5.50;;;11.10;55.10;;;;;;5023670;28;20414;-39
2022/03/08 10:39:53;;;;;;;6.43;5.00;;;11.20;55.80;;;;;;5029388;28;20429;-39
2022/03/08 10:42:30;;;;;;;8.67;5.40;;;11.20;55.00;;;;;;5029930;28;20456;-39
2022/03/08 10:45:04;;;;;;;8.07;5.00;;;11.30;55.50;;;;;;5029406;28;20425;-39
2022/03/08 10:47:50;;;;;;;5.63;5.07;;;11.20;54.80;;;;;;5029460;28;20857;-40
2022/03/08 10:50:17;;;;;;;5.40;4.77;;;11.20;54.30;;;;;;5020450;28;20812;-39
2022/03/08 10:52:46;;;;;;;6.93;5.70;;;11.20;53.90;;;;;;5028164;28;20496;-40
2022/03/08 10:55:18;;;;;;;7.13;5.27;;;11.30;54.70;;;;;;5029401;28;20866;-40
2022/03/08 10:57:49;;;;;;;9.23;5.20;;;11.40;53.50;;;;;;5029132;28;20437;-39
2022/03/08 11:00:17;;;;;;;6.07;4.80;;;11.20;54.10;;;;;;5027426;28;20431;-40
2022/03/08 11:02:55;;;;;;;5.33;4.80;;;10.90;53.50;;;;;;5029407;28;20500;-39
2022/03/08 11:05:23;;;;;;;7.53;4.20;;;10.90;53.40;;;;;;5021101;28;20859;-39
2022/03/08 11:07:51;;;;;;;5.43;4.60;;;11.10;53.60;;;;;;5028958;28;20432;-41
2022/03/08 11:10:18;;;;;;;5.50;4.50;;;10.70;53.50;;;;;;5026939;28;20425;-40
2022/03/08 11:12:44;;;;;;;5.50;4.00;;;10.70;53.00;;;;;;5029584;28;20452;-40
2022/03/08 11:15:13;;;;;;;5.70;4.47;;;10.60;52.10;;;;;;5027873;28;20971;-39
2022/03/08 11:17:41;;;;;;;4.40;4.00;;;10.70;52.90;;;;;;5029722;28;20212;-40
2022/03/08 11:20:08;;;;;;;4.30;3.90;;;10.60;52.60;;;;;;5022127;28;20445;-40
2022/03/08 11:22:36;;;;;;;5.30;4.70;;;10.70;52.90;;;;;;5020050;28;20915;-40
2022/03/08 11:25:02;;;;;;;4.43;3.60;;;10.60;52.10;;;;;;5027601;28;20982;-48
2022/03/08 11:27:28;;;;;;;5.97;3.80;;;10.60;52.20;;;;;;5028862;28;20781;-41
2022/03/08 11:29:54;;;;;;;5.80;4.07;;;10.60;52.20;;;;;;5028573;28;20421;-39
2022/03/08 11:32:31;;;;;;;5.50;4.00;;;10.70;51.30;;;;;;5029088;28;20998;-40
2022/03/08 11:35:14;;;;;;;4.77;4.00;;;10.70;51.00;;;;;;5024157;28;20218;-40
2022/03/08 11:37:45;;;;;;;4.30;3.90;;;10.90;50.70;;;;;;5024160;28;20417;-39
2022/03/08 11:40:16;;;;;;;5.10;4.20;;;11.00;50.60;;;;;;5022614;28;20425;-39
2022/03/08 11:42:45;;;;;;;4.13;3.73;;;11.40;50.90;;;;;;5028893;28;20791;-39
2022/03/08 11:45:20;;;;;;;4.10;3.57;;;11.40;51.30;;;;;;5028721;28;20428;-40
2022/03/08 11:47:52;;;;;;;5.53;3.70;;;11.50;50.10;;;;;;5028209;28;20461;-39
2022/03/08 11:50:27;;;;;;;4.47;4.07;;;11.70;49.70;;;;;;5023348;28;20803;-39
2022/03/08 11:53:09;;;;;;;6.13;4.00;;;11.80;49.80;;;;;;5023870;28;20451;-39
2022/03/08 11:55:56;;;;;;;4.50;3.87;;;12.10;49.00;;;;;;5028278;28;21026;-40
2022/03/08 11:58:40;;;;;;;4.97;4.40;;;12.10;49.30;;;;;;5016051;28;20432;-39
2022/03/08 12:01:05;;;;;;;4.60;3.93;;;12.20;49.20;;;;;;5026653;28;20500;-40
2022/03/08 12:03:31;;;;;;;4.00;3.60;;;12.20;48.90;;;;;;5026883;28;20433;-40
2022/03/08 12:06:00;;;;;;;4.80;4.30;;;12.20;48.60;;;;;;5022307;28;20279;-39
2022/03/08 12:08:28;;;;;;;4.47;4.03;;;12.20;48.40;;;;;;5024256;28;20239;-40
2022/03/08 12:11:00;;;;;;;5.07;4.37;;;12.10;48.70;;;;;;5026519;28;20514;-40
2022/03/08 12:13:34;;;;;;;5.00;4.50;;;12.30;49.50;;;;;;5028275;28;20575;-40
2022/03/08 12:16:06;;;;;;;5.17;4.67;;;12.40;49.40;;;;;;5016005;28;20460;-40
2022/03/08 12:18:45;;;;;;;6.47;5.10;;;12.60;49.50;;;;;;5028145;28;20504;-40
2022/03/08 12:21:20;;;;;;;7.70;3.80;;;12.70;49.10;;;;;;5019210;28;20440;-40
2022/03/08 12:24:07;;;;;;;5.30;4.33;;;12.90;49.20;;;;;;5025500;28;20543;-39
2022/03/08 12:26:33;;;;;;;7.03;5.00;;;13.00;48.50;;;;;;5027868;28;20429;-40
2022/03/08 12:29:17;;;;;;;6.50;4.50;;;12.90;48.10;;;;;;5027933;28;20417;-39
2022/03/08 12:31:58;;;;;;;5.40;4.10;;;13.00;48.30;;;;;;5026984;28;20187;-40
2022/03/08 12:34:35;;;;;;;3.97;3.43;;;12.90;47.90;;;;;;5027607;28;20461;-41
2022/03/08 12:37:13;;;;;;;6.43;3.60;;;12.80;45.90;;;;;;5015834;28;20828;-40
2022/03/08 12:40:03;;;;;;;3.50;3.20;;;12.80;45.50;;;;;;5024845;28;20424;-39
2022/03/08 12:42:34;;;;;;;4.03;3.63;;;12.80;47.10;;;;;;5027675;28;20424;-39
2022/03/08 12:45:11;;;;;;;4.37;3.97;;;12.70;46.10;;;;;;5027820;28;20433;-39
2022/03/08 12:47:39;;;;;;;3.57;3.20;;;12.80;45.60;;;;;;5027369;28;20445;-39
2022/03/08 12:50:08;;;;;;;3.90;3.40;;;12.90;47.20;;;;;;5026613;28;20421;-39
2022/03/08 12:52:40;;;;;;;4.40;3.37;;;12.70;45.10;;;;;;5020262;28;20622;-39
2022/03/08 12:55:09;;;;;;;3.93;3.40;;;12.70;45.20;;;;;;5027257;28;20504;-40